sensor_id;sensor_type;location;lat;lon;timestamp;P1;durP1;ratioP1;P2;durP2;ratioP2
58553;SDS011;48119;53.218;6.576;2022-08-19T00:00:05;5.85;;;4.40;;
58553;SDS011;48119;53.218;6.576;2022-08-19T00:02:33;5.97;;;4.15;;
58553;SDS011;48119;53.218;6.576;2022-08-19T00:05:00;6.10;;;4.85;;
58553;SDS011;48119;53.218;6.576;2022-08-19T00:07:28;9.80;;;4.25;;
58553;SDS011;48119;53.218;6.576;2022-08-19T00:09:54;6.95;;;4.00;;
58553;SDS011;48119;53.218;6.576;2022-08-19T00:12:21;5.88;;;3.60;;
58553;SDS011;48119;53.218;6.576;2022-08-19T00:14:47;8.38;;;3.95;;
58553;SDS011;48119;53.218;6.576;2022-08-19T00:17:12;9.30;;;4.65;;
58553;SDS011;48119;53.218;6.576;2022-08-19T00:19:38;7.15;;;4.38;;
58553;SDS011;48119;53.218;6.576;2022-08-19T00:22:05;8.07;;;4.60;;
58553;SDS011;48119;53.218;6.576;2022-08-19T00:24:33;6.82;;;5.35;;
58553;SDS011;48119;53.218;6.576;2022-08-19T00:27:00;7.80;;;4.82;;
58553;SDS011;48119;53.218;6.576;2022-08-19T00:29:27;7.47;;;5.00;;
58553;SDS011;48119;53.218;6.576;2022-08-19T00:31:53;9.73;;;5.60;;
58553;SDS011;48119;53.218;6.576;2022-08-19T00:34:21;10.32;;;5.88;;
58553;SDS011;48119;53.218;6.576;2022-08-19T00:36:48;10.27;;;5.10;;
58553;SDS011;48119;53.218;6.576;2022-08-19T00:39:14;7.38;;;5.68;;
58553;SDS011;48119;53.218;6.576;2022-08-19T00:41:41;7.60;;;5.65;;
58553;SDS011;48119;53.218;6.576;2022-08-19T00:44:10;7.95;;;5.28;;
58553;SDS011;48119;53.218;6.576;2022-08-19T00:46:39;9.73;;;5.38;;
58553;SDS011;48119;53.218;6.576;2022-08-19T00:49:15;7.38;;;4.72;;
58553;SDS011;48119;53.218;6.576;2022-08-19T00:52:07;7.38;;;5.25;;
58553;SDS011;48119;53.218;6.576;2022-08-19T00:54:37;7.82;;;4.97;;
58553;SDS011;48119;53.218;6.576;2022-08-19T00:57:04;8.77;;;5.40;;
58553;SDS011;48119;53.218;6.576;2022-08-19T00:59:35;12.90;;;5.85;;
58553;SDS011;48119;53.218;6.576;2022-08-19T01:02:03;9.15;;;5.20;;
58553;SDS011;48119;53.218;6.576;2022-08-19T01:04:29;8.23;;;5.57;;
58553;SDS011;48119;53.218;6.576;2022-08-19T01:06:55;7.28;;;5.07;;
58553;SDS011;48119;53.218;6.576;2022-08-19T01:09:22;6.28;;;4.10;;
58553;SDS011;48119;53.218;6.576;2022-08-19T01:11:49;7.50;;;4.43;;
58553;SDS011;48119;53.218;6.576;2022-08-19T01:14:16;5.57;;;4.35;;
58553;SDS011;48119;53.218;6.576;2022-08-19T01:16:43;8.23;;;4.65;;
58553;SDS011;48119;53.218;6.576;2022-08-19T01:19:20;7.45;;;5.43;;
58553;SDS011;48119;53.218;6.576;2022-08-19T01:22:09;7.10;;;4.38;;
58553;SDS011;48119;53.218;6.576;2022-08-19T01:24:41;7.20;;;4.90;;
58553;SDS011;48119;53.218;6.576;2022-08-19T01:27:07;7.30;;;4.97;;
58553;SDS011;48119;53.218;6.576;2022-08-19T01:29:34;7.90;;;5.38;;
58553;SDS011;48119;53.218;6.576;2022-08-19T01:32:03;7.72;;;5.25;;
58553;SDS011;48119;53.218;6.576;2022-08-19T01:34:29;9.60;;;6.70;;
58553;SDS011;48119;53.218;6.576;2022-08-19T01:36:55;8.40;;;6.10;;
58553;SDS011;48119;53.218;6.576;2022-08-19T01:39:22;11.63;;;6.30;;
58553;SDS011;48119;53.218;6.576;2022-08-19T01:41:49;14.52;;;6.95;;
58553;SDS011;48119;53.218;6.576;2022-08-19T01:44:17;10.88;;;7.85;;
58553;SDS011;48119;53.218;6.576;2022-08-19T01:46:46;13.77;;;7.85;;
58553;SDS011;48119;53.218;6.576;2022-08-19T01:49:13;11.88;;;8.07;;
58553;SDS011;48119;53.218;6.576;2022-08-19T01:51:39;15.63;;;8.63;;
58553;SDS011;48119;53.218;6.576;2022-08-19T01:54:05;13.38;;;8.75;;
58553;SDS011;48119;53.218;6.576;2022-08-19T01:56:30;11.05;;;7.18;;
58553;SDS011;48119;53.218;6.576;2022-08-19T01:59:00;9.23;;;6.78;;
58553;SDS011;48119;53.218;6.576;2022-08-19T02:01:29;8.80;;;6.38;;
58553;SDS011;48119;53.218;6.576;2022-08-19T02:03:58;5.93;;;4.50;;
58553;SDS011;48119;53.218;6.576;2022-08-19T02:06:25;8.30;;;5.60;;
58553;SDS011;48119;53.218;6.576;2022-08-19T02:08:52;7.10;;;5.60;;
58553;SDS011;48119;53.218;6.576;2022-08-19T02:11:19;8.45;;;5.35;;
58553;SDS011;48119;53.218;6.576;2022-08-19T02:13:51;7.97;;;5.85;;
58553;SDS011;48119;53.218;6.576;2022-08-19T02:16:18;10.30;;;7.05;;
58553;SDS011;48119;53.218;6.576;2022-08-19T02:18:45;9.77;;;6.32;;
58553;SDS011;48119;53.218;6.576;2022-08-19T02:21:13;7.85;;;5.72;;
58553;SDS011;48119;53.218;6.576;2022-08-19T02:23:40;10.43;;;7.07;;
58553;SDS011;48119;53.218;6.576;2022-08-19T02:26:07;8.32;;;6.47;;
58553;SDS011;48119;53.218;6.576;2022-08-19T02:28:33;6.68;;;5.38;;
58553;SDS011;48119;53.218;6.576;2022-08-19T02:30:59;8.52;;;6.20;;
58553;SDS011;48119;53.218;6.576;2022-08-19T02:33:26;9.25;;;5.07;;
58553;SDS011;48119;53.218;6.576;2022-08-19T02:35:52;8.60;;;5.90;;
58553;SDS011;48119;53.218;6.576;2022-08-19T02:38:17;11.13;;;6.40;;
58553;SDS011;48119;53.218;6.576;2022-08-19T02:40:54;8.38;;;5.28;;
58553;SDS011;48119;53.218;6.576;2022-08-19T02:43:26;9.13;;;5.55;;
58553;SDS011;48119;53.218;6.576;2022-08-19T02:45:54;8.43;;;6.45;;
58553;SDS011;48119;53.218;6.576;2022-08-19T02:48:21;7.40;;;5.68;;
58553;SDS011;48119;53.218;6.576;2022-08-19T02:50:50;8.35;;;5.28;;
58553;SDS011;48119;53.218;6.576;2022-08-19T02:53:23;6.55;;;4.57;;
58553;SDS011;48119;53.218;6.576;2022-08-19T02:55:51;6.47;;;4.85;;
58553;SDS011;48119;53.218;6.576;2022-08-19T02:58:17;10.35;;;5.05;;
58553;SDS011;48119;53.218;6.576;2022-08-19T03:00:48;6.10;;;4.85;;
58553;SDS011;48119;53.218;6.576;2022-08-19T03:03:17;6.35;;;4.43;;
58553;SDS011;48119;53.218;6.576;2022-08-19T03:05:44;8.27;;;5.38;;
58553;SDS011;48119;53.218;6.576;2022-08-19T03:08:11;6.43;;;4.43;;
58553;SDS011;48119;53.218;6.576;2022-08-19T03:10:41;6.10;;;4.90;;
58553;SDS011;48119;53.218;6.576;2022-08-19T03:13:10;7.03;;;4.47;;
58553;SDS011;48119;53.218;6.576;2022-08-19T03:15:41;8.73;;;4.70;;
58553;SDS011;48119;53.218;6.576;2022-08-19T03:18:08;7.32;;;4.63;;
58553;SDS011;48119;53.218;6.576;2022-08-19T03:20:39;8.10;;;4.38;;
58553;SDS011;48119;53.218;6.576;2022-08-19T03:23:07;7.18;;;4.95;;
58553;SDS011;48119;53.218;6.576;2022-08-19T03:25:36;6.43;;;4.70;;
58553;SDS011;48119;53.218;6.576;2022-08-19T03:28:03;6.78;;;4.65;;
58553;SDS011;48119;53.218;6.576;2022-08-19T03:30:29;10.88;;;5.10;;
58553;SDS011;48119;53.218;6.576;2022-08-19T03:32:54;7.53;;;4.70;;
58553;SDS011;48119;53.218;6.576;2022-08-19T03:35:20;7.68;;;5.20;;
58553;SDS011;48119;53.218;6.576;2022-08-19T03:37:46;7.20;;;4.70;;
58553;SDS011;48119;53.218;6.576;2022-08-19T03:40:12;8.77;;;5.22;;
58553;SDS011;48119;53.218;6.576;2022-08-19T03:42:37;6.40;;;5.00;;
58553;SDS011;48119;53.218;6.576;2022-08-19T03:45:05;9.55;;;5.70;;
58553;SDS011;48119;53.218;6.576;2022-08-19T03:47:32;6.97;;;4.70;;
58553;SDS011;48119;53.218;6.576;2022-08-19T03:49:58;8.85;;;5.40;;
58553;SDS011;48119;53.218;6.576;2022-08-19T03:52:23;7.85;;;5.85;;
58553;SDS011;48119;53.218;6.576;2022-08-19T03:54:49;8.23;;;5.07;;
58553;SDS011;48119;53.218;6.576;2022-08-19T03:57:15;6.72;;;5.03;;
58553;SDS011;48119;53.218;6.576;2022-08-19T03:59:40;8.02;;;5.75;;
58553;SDS011;48119;53.218;6.576;2022-08-19T04:02:08;7.95;;;5.40;;
58553;SDS011;48119;53.218;6.576;2022-08-19T04:04:36;6.35;;;5.00;;
58553;SDS011;48119;53.218;6.576;2022-08-19T04:07:03;8.45;;;5.85;;
58553;SDS011;48119;53.218;6.576;2022-08-19T04:09:29;6.63;;;4.93;;
58553;SDS011;48119;53.218;6.576;2022-08-19T04:11:56;10.48;;;6.32;;
58553;SDS011;48119;53.218;6.576;2022-08-19T04:14:23;7.65;;;5.07;;
58553;SDS011;48119;53.218;6.576;2022-08-19T04:16:57;9.80;;;5.22;;
58553;SDS011;48119;53.218;6.576;2022-08-19T04:19:24;6.93;;;4.75;;
58553;SDS011;48119;53.218;6.576;2022-08-19T04:21:51;8.60;;;5.32;;
58553;SDS011;48119;53.218;6.576;2022-08-19T04:24:19;6.57;;;5.10;;
58553;SDS011;48119;53.218;6.576;2022-08-19T04:26:45;9.25;;;5.63;;
58553;SDS011;48119;53.218;6.576;2022-08-19T04:29:17;7.50;;;5.00;;
58553;SDS011;48119;53.218;6.576;2022-08-19T04:31:50;7.95;;;5.15;;
58553;SDS011;48119;53.218;6.576;2022-08-19T04:34:19;6.65;;;4.63;;
58553;SDS011;48119;53.218;6.576;2022-08-19T04:36:49;7.22;;;4.57;;
58553;SDS011;48119;53.218;6.576;2022-08-19T04:39:17;8.82;;;5.00;;
58553;SDS011;48119;53.218;6.576;2022-08-19T04:41:47;7.93;;;5.40;;
58553;SDS011;48119;53.218;6.576;2022-08-19T04:44:33;6.20;;;4.57;;
58553;SDS011;48119;53.218;6.576;2022-08-19T04:47:00;7.43;;;4.80;;
58553;SDS011;48119;53.218;6.576;2022-08-19T04:49:30;6.55;;;4.97;;
58553;SDS011;48119;53.218;6.576;2022-08-19T04:51:55;8.07;;;5.10;;
58553;SDS011;48119;53.218;6.576;2022-08-19T04:54:22;7.70;;;5.55;;
58553;SDS011;48119;53.218;6.576;2022-08-19T04:56:50;10.10;;;5.53;;
58553;SDS011;48119;53.218;6.576;2022-08-19T04:59:18;8.13;;;5.68;;
58553;SDS011;48119;53.218;6.576;2022-08-19T05:01:45;8.65;;;5.85;;
58553;SDS011;48119;53.218;6.576;2022-08-19T05:04:14;9.38;;;6.40;;
58553;SDS011;48119;53.218;6.576;2022-08-19T05:06:43;9.35;;;5.85;;
58553;SDS011;48119;53.218;6.576;2022-08-19T05:09:10;8.95;;;6.10;;
58553;SDS011;48119;53.218;6.576;2022-08-19T05:11:36;9.00;;;5.97;;
58553;SDS011;48119;53.218;6.576;2022-08-19T05:14:04;8.80;;;5.85;;
58553;SDS011;48119;53.218;6.576;2022-08-19T05:16:30;8.05;;;6.55;;
58553;SDS011;48119;53.218;6.576;2022-08-19T05:18:56;8.07;;;6.03;;
58553;SDS011;48119;53.218;6.576;2022-08-19T05:21:41;8.25;;;6.25;;
58553;SDS011;48119;53.218;6.576;2022-08-19T05:24:26;9.40;;;7.53;;
58553;SDS011;48119;53.218;6.576;2022-08-19T05:26:52;10.50;;;6.45;;
58553;SDS011;48119;53.218;6.576;2022-08-19T05:29:22;9.40;;;6.93;;
58553;SDS011;48119;53.218;6.576;2022-08-19T05:31:49;10.15;;;7.10;;
58553;SDS011;48119;53.218;6.576;2022-08-19T05:34:16;11.38;;;7.60;;
58553;SDS011;48119;53.218;6.576;2022-08-19T05:36:46;11.10;;;7.03;;
58553;SDS011;48119;53.218;6.576;2022-08-19T05:39:15;10.52;;;7.40;;
58553;SDS011;48119;53.218;6.576;2022-08-19T05:41:46;12.32;;;7.72;;
58553;SDS011;48119;53.218;6.576;2022-08-19T05:44:18;10.70;;;6.88;;
58553;SDS011;48119;53.218;6.576;2022-08-19T05:46:45;11.98;;;7.72;;
58553;SDS011;48119;53.218;6.576;2022-08-19T05:49:17;11.32;;;8.00;;
58553;SDS011;48119;53.218;6.576;2022-08-19T05:51:46;12.75;;;8.38;;
58553;SDS011;48119;53.218;6.576;2022-08-19T05:54:12;13.57;;;7.93;;
58553;SDS011;48119;53.218;6.576;2022-08-19T05:56:39;12.05;;;8.07;;
58553;SDS011;48119;53.218;6.576;2022-08-19T05:59:06;12.57;;;7.40;;
58553;SDS011;48119;53.218;6.576;2022-08-19T06:01:35;9.00;;;7.38;;
58553;SDS011;48119;53.218;6.576;2022-08-19T06:04:02;9.65;;;7.72;;
58553;SDS011;48119;53.218;6.576;2022-08-19T06:06:29;10.98;;;8.25;;
58553;SDS011;48119;53.218;6.576;2022-08-19T06:08:55;17.08;;;7.97;;
58553;SDS011;48119;53.218;6.576;2022-08-19T06:11:23;10.63;;;7.35;;
58553;SDS011;48119;53.218;6.576;2022-08-19T06:13:57;10.23;;;7.25;;
58553;SDS011;48119;53.218;6.576;2022-08-19T06:16:27;12.10;;;7.82;;
58553;SDS011;48119;53.218;6.576;2022-08-19T06:18:54;14.20;;;8.02;;
58553;SDS011;48119;53.218;6.576;2022-08-19T06:21:22;10.23;;;7.65;;
58553;SDS011;48119;53.218;6.576;2022-08-19T06:23:51;10.50;;;7.50;;
58553;SDS011;48119;53.218;6.576;2022-08-19T06:26:18;8.85;;;6.38;;
58553;SDS011;48119;53.218;6.576;2022-08-19T06:28:45;12.25;;;7.55;;
58553;SDS011;48119;53.218;6.576;2022-08-19T06:31:15;10.35;;;7.35;;
58553;SDS011;48119;53.218;6.576;2022-08-19T06:33:43;9.45;;;6.13;;
58553;SDS011;48119;53.218;6.576;2022-08-19T06:36:20;14.93;;;7.45;;
58553;SDS011;48119;53.218;6.576;2022-08-19T06:38:52;9.30;;;6.75;;
58553;SDS011;48119;53.218;6.576;2022-08-19T06:41:18;11.43;;;6.65;;
58553;SDS011;48119;53.218;6.576;2022-08-19T06:43:44;9.82;;;6.53;;
58553;SDS011;48119;53.218;6.576;2022-08-19T06:46:10;10.35;;;6.97;;
58553;SDS011;48119;53.218;6.576;2022-08-19T06:48:39;11.93;;;7.43;;
58553;SDS011;48119;53.218;6.576;2022-08-19T06:51:05;13.07;;;7.55;;
58553;SDS011;48119;53.218;6.576;2022-08-19T06:53:31;8.43;;;5.65;;
58553;SDS011;48119;53.218;6.576;2022-08-19T06:55:57;10.73;;;6.57;;
58553;SDS011;48119;53.218;6.576;2022-08-19T06:58:25;8.48;;;6.82;;
58553;SDS011;48119;53.218;6.576;2022-08-19T07:00:51;10.30;;;6.10;;
58553;SDS011;48119;53.218;6.576;2022-08-19T07:03:17;9.02;;;6.28;;
58553;SDS011;48119;53.218;6.576;2022-08-19T07:05:43;8.93;;;5.90;;
58553;SDS011;48119;53.218;6.576;2022-08-19T07:08:08;9.38;;;7.03;;
58553;SDS011;48119;53.218;6.576;2022-08-19T07:10:35;8.23;;;5.97;;
58553;SDS011;48119;53.218;6.576;2022-08-19T07:13:02;10.57;;;6.68;;
58553;SDS011;48119;53.218;6.576;2022-08-19T07:15:28;9.00;;;6.00;;
58553;SDS011;48119;53.218;6.576;2022-08-19T07:17:55;8.60;;;7.05;;
58553;SDS011;48119;53.218;6.576;2022-08-19T07:20:21;7.75;;;5.88;;
58553;SDS011;48119;53.218;6.576;2022-08-19T07:22:47;8.93;;;6.40;;
58553;SDS011;48119;53.218;6.576;2022-08-19T07:25:13;13.50;;;6.60;;
58553;SDS011;48119;53.218;6.576;2022-08-19T07:27:39;9.65;;;6.10;;
58553;SDS011;48119;53.218;6.576;2022-08-19T07:30:04;11.73;;;7.20;;
58553;SDS011;48119;53.218;6.576;2022-08-19T07:32:31;12.98;;;6.90;;
58553;SDS011;48119;53.218;6.576;2022-08-19T07:34:57;10.52;;;5.85;;
58553;SDS011;48119;53.218;6.576;2022-08-19T07:37:25;7.75;;;5.30;;
58553;SDS011;48119;53.218;6.576;2022-08-19T07:39:53;8.75;;;6.88;;
58553;SDS011;48119;53.218;6.576;2022-08-19T07:42:19;7.28;;;5.90;;
58553;SDS011;48119;53.218;6.576;2022-08-19T07:44:46;14.32;;;6.72;;
58553;SDS011;48119;53.218;6.576;2022-08-19T07:47:11;9.98;;;6.25;;
58553;SDS011;48119;53.218;6.576;2022-08-19T07:49:40;7.20;;;6.25;;
58553;SDS011;48119;53.218;6.576;2022-08-19T07:52:07;7.60;;;5.60;;
58553;SDS011;48119;53.218;6.576;2022-08-19T07:54:34;7.78;;;5.60;;
58553;SDS011;48119;53.218;6.576;2022-08-19T07:57:01;8.52;;;6.20;;
58553;SDS011;48119;53.218;6.576;2022-08-19T07:59:28;7.10;;;4.65;;
58553;SDS011;48119;53.218;6.576;2022-08-19T08:01:55;9.77;;;6.78;;
58553;SDS011;48119;53.218;6.576;2022-08-19T08:04:22;11.02;;;6.05;;
58553;SDS011;48119;53.218;6.576;2022-08-19T08:07:06;11.45;;;6.95;;
58553;SDS011;48119;53.218;6.576;2022-08-19T08:09:52;9.13;;;7.47;;
58553;SDS011;48119;53.218;6.576;2022-08-19T08:12:20;9.10;;;6.90;;
58553;SDS011;48119;53.218;6.576;2022-08-19T08:14:52;8.43;;;6.82;;
58553;SDS011;48119;53.218;6.576;2022-08-19T08:17:20;10.10;;;7.10;;
58553;SDS011;48119;53.218;6.576;2022-08-19T08:19:48;7.72;;;6.63;;
58553;SDS011;48119;53.218;6.576;2022-08-19T08:22:16;11.23;;;7.15;;
58553;SDS011;48119;53.218;6.576;2022-08-19T08:25:04;10.82;;;6.55;;
58553;SDS011;48119;53.218;6.576;2022-08-19T08:27:35;12.15;;;7.18;;
58553;SDS011;48119;53.218;6.576;2022-08-19T08:30:06;9.45;;;5.88;;
58553;SDS011;48119;53.218;6.576;2022-08-19T08:32:38;7.25;;;5.82;;
58553;SDS011;48119;53.218;6.576;2022-08-19T08:35:06;7.90;;;5.65;;
58553;SDS011;48119;53.218;6.576;2022-08-19T08:37:34;7.05;;;5.00;;
58553;SDS011;48119;53.218;6.576;2022-08-19T08:45:46;10.48;;;7.05;;
58553;SDS011;48119;53.218;6.576;2022-08-19T08:48:21;9.88;;;6.72;;
58553;SDS011;48119;53.218;6.576;2022-08-19T08:50:56;11.13;;;7.07;;
58553;SDS011;48119;53.218;6.576;2022-08-19T08:53:24;10.48;;;7.70;;
58553;SDS011;48119;53.218;6.576;2022-08-19T08:55:51;12.30;;;7.00;;
58553;SDS011;48119;53.218;6.576;2022-08-19T08:58:36;12.05;;;8.73;;
58553;SDS011;48119;53.218;6.576;2022-08-19T09:01:09;10.85;;;9.00;;
58553;SDS011;48119;53.218;6.576;2022-08-19T09:03:36;12.70;;;9.00;;
58553;SDS011;48119;53.218;6.576;2022-08-19T09:06:26;10.07;;;8.20;;
58553;SDS011;48119;53.218;6.576;2022-08-19T09:11:35;11.30;;;8.00;;
58553;SDS011;48119;53.218;6.576;2022-08-19T09:17:20;10.20;;;9.07;;
58553;SDS011;48119;53.218;6.576;2022-08-19T09:19:59;11.45;;;9.20;;
58553;SDS011;48119;53.218;6.576;2022-08-19T09:22:33;10.95;;;8.32;;
58553;SDS011;48119;53.218;6.576;2022-08-19T09:25:00;13.07;;;6.97;;
58553;SDS011;48119;53.218;6.576;2022-08-19T09:27:27;11.68;;;7.53;;
58553;SDS011;48119;53.218;6.576;2022-08-19T09:29:54;9.50;;;7.88;;
58553;SDS011;48119;53.218;6.576;2022-08-19T09:32:21;9.98;;;7.65;;
58553;SDS011;48119;53.218;6.576;2022-08-19T09:34:47;7.43;;;6.30;;
58553;SDS011;48119;53.218;6.576;2022-08-19T09:37:13;9.20;;;7.53;;
58553;SDS011;48119;53.218;6.576;2022-08-19T09:39:39;8.68;;;7.47;;
58553;SDS011;48119;53.218;6.576;2022-08-19T09:42:06;9.52;;;7.63;;
58553;SDS011;48119;53.218;6.576;2022-08-19T09:44:40;9.85;;;6.45;;
58553;SDS011;48119;53.218;6.576;2022-08-19T09:47:07;8.68;;;6.70;;
58553;SDS011;48119;53.218;6.576;2022-08-19T09:49:34;9.60;;;8.45;;
58553;SDS011;48119;53.218;6.576;2022-08-19T09:51:59;9.55;;;7.60;;
58553;SDS011;48119;53.218;6.576;2022-08-19T09:54:26;8.13;;;6.90;;
58553;SDS011;48119;53.218;6.576;2022-08-19T09:56:53;10.30;;;7.68;;
58553;SDS011;48119;53.218;6.576;2022-08-19T09:59:19;9.38;;;6.97;;
58553;SDS011;48119;53.218;6.576;2022-08-19T10:01:45;7.45;;;6.68;;
58553;SDS011;48119;53.218;6.576;2022-08-19T10:04:11;15.13;;;8.65;;
58553;SDS011;48119;53.218;6.576;2022-08-19T10:06:38;10.65;;;8.30;;
58553;SDS011;48119;53.218;6.576;2022-08-19T10:09:05;11.85;;;7.60;;
58553;SDS011;48119;53.218;6.576;2022-08-19T10:11:33;9.50;;;8.05;;
58553;SDS011;48119;53.218;6.576;2022-08-19T10:14:00;9.77;;;7.78;;
58553;SDS011;48119;53.218;6.576;2022-08-19T10:16:27;10.10;;;8.25;;
58553;SDS011;48119;53.218;6.576;2022-08-19T10:18:53;10.13;;;7.63;;
58553;SDS011;48119;53.218;6.576;2022-08-19T10:23:53;11.80;;;9.05;;
58553;SDS011;48119;53.218;6.576;2022-08-19T10:26:23;10.43;;;7.97;;
58553;SDS011;48119;53.218;6.576;2022-08-19T10:28:52;11.10;;;8.18;;
58553;SDS011;48119;53.218;6.576;2022-08-19T10:31:20;8.32;;;7.53;;
58553;SDS011;48119;53.218;6.576;2022-08-19T10:33:48;9.15;;;7.47;;
58553;SDS011;48119;53.218;6.576;2022-08-19T10:36:17;8.25;;;7.38;;
58553;SDS011;48119;53.218;6.576;2022-08-19T10:38:45;13.95;;;8.57;;
58553;SDS011;48119;53.218;6.576;2022-08-19T10:41:17;9.85;;;8.10;;
58553;SDS011;48119;53.218;6.576;2022-08-19T10:43:50;11.10;;;8.65;;
58553;SDS011;48119;53.218;6.576;2022-08-19T10:46:19;13.52;;;8.82;;
58553;SDS011;48119;53.218;6.576;2022-08-19T10:48:47;10.52;;;8.82;;
58553;SDS011;48119;53.218;6.576;2022-08-19T10:51:13;10.07;;;8.57;;
58553;SDS011;48119;53.218;6.576;2022-08-19T10:53:57;12.10;;;8.55;;
58553;SDS011;48119;53.218;6.576;2022-08-19T10:56:25;11.75;;;8.63;;
58553;SDS011;48119;53.218;6.576;2022-08-19T10:59:10;13.98;;;8.73;;
58553;SDS011;48119;53.218;6.576;2022-08-19T11:01:38;10.95;;;8.68;;
58553;SDS011;48119;53.218;6.576;2022-08-19T11:04:05;12.90;;;8.80;;
58553;SDS011;48119;53.218;6.576;2022-08-19T11:06:35;10.70;;;8.77;;
58553;SDS011;48119;53.218;6.576;2022-08-19T11:09:01;11.63;;;9.10;;
58553;SDS011;48119;53.218;6.576;2022-08-19T11:11:28;10.15;;;8.77;;
58553;SDS011;48119;53.218;6.576;2022-08-19T11:13:54;10.68;;;8.38;;
58553;SDS011;48119;53.218;6.576;2022-08-19T11:16:21;13.32;;;10.80;;
58553;SDS011;48119;53.218;6.576;2022-08-19T11:18:50;11.35;;;9.10;;
58553;SDS011;48119;53.218;6.576;2022-08-19T11:21:38;12.05;;;9.63;;
58553;SDS011;48119;53.218;6.576;2022-08-19T11:24:07;9.38;;;8.15;;
58553;SDS011;48119;53.218;6.576;2022-08-19T11:26:38;10.90;;;9.27;;
58553;SDS011;48119;53.218;6.576;2022-08-19T11:29:06;9.80;;;7.78;;
58553;SDS011;48119;53.218;6.576;2022-08-19T11:31:38;11.52;;;8.20;;
58553;SDS011;48119;53.218;6.576;2022-08-19T11:34:07;10.18;;;7.72;;
58553;SDS011;48119;53.218;6.576;2022-08-19T11:36:37;11.45;;;9.40;;
58553;SDS011;48119;53.218;6.576;2022-08-19T11:39:09;12.18;;;9.07;;
58553;SDS011;48119;53.218;6.576;2022-08-19T11:41:36;13.02;;;10.07;;
58553;SDS011;48119;53.218;6.576;2022-08-19T11:44:02;13.30;;;10.55;;
58553;SDS011;48119;53.218;6.576;2022-08-19T11:46:30;11.30;;;9.38;;
58553;SDS011;48119;53.218;6.576;2022-08-19T11:48:56;12.63;;;9.07;;
58553;SDS011;48119;53.218;6.576;2022-08-19T11:51:24;11.63;;;8.70;;
58553;SDS011;48119;53.218;6.576;2022-08-19T11:53:51;15.55;;;8.93;;
58553;SDS011;48119;53.218;6.576;2022-08-19T11:56:18;11.70;;;10.13;;
58553;SDS011;48119;53.218;6.576;2022-08-19T11:58:45;11.73;;;9.93;;
58553;SDS011;48119;53.218;6.576;2022-08-19T12:01:11;16.17;;;14.25;;
58553;SDS011;48119;53.218;6.576;2022-08-19T12:03:40;10.70;;;9.60;;
58553;SDS011;48119;53.218;6.576;2022-08-19T12:06:11;12.23;;;10.23;;
58553;SDS011;48119;53.218;6.576;2022-08-19T12:08:42;12.40;;;9.48;;
58553;SDS011;48119;53.218;6.576;2022-08-19T12:11:09;12.02;;;10.25;;
58553;SDS011;48119;53.218;6.576;2022-08-19T12:13:37;11.88;;;9.93;;
58553;SDS011;48119;53.218;6.576;2022-08-19T12:16:13;11.45;;;9.50;;
58553;SDS011;48119;53.218;6.576;2022-08-19T12:18:42;14.45;;;10.50;;
58553;SDS011;48119;53.218;6.576;2022-08-19T12:21:11;12.60;;;10.45;;
58553;SDS011;48119;53.218;6.576;2022-08-19T12:23:40;11.05;;;8.80;;
58553;SDS011;48119;53.218;6.576;2022-08-19T12:26:08;13.25;;;9.30;;
58553;SDS011;48119;53.218;6.576;2022-08-19T12:28:35;13.82;;;10.55;;
58553;SDS011;48119;53.218;6.576;2022-08-19T12:31:00;14.68;;;9.60;;
58553;SDS011;48119;53.218;6.576;2022-08-19T12:33:26;13.88;;;9.85;;
58553;SDS011;48119;53.218;6.576;2022-08-19T12:35:53;13.55;;;9.73;;
58553;SDS011;48119;53.218;6.576;2022-08-19T12:38:20;13.77;;;10.57;;
58553;SDS011;48119;53.218;6.576;2022-08-19T12:40:49;16.38;;;10.77;;
58553;SDS011;48119;53.218;6.576;2022-08-19T12:43:16;14.00;;;11.50;;
58553;SDS011;48119;53.218;6.576;2022-08-19T12:45:43;16.40;;;11.45;;
58553;SDS011;48119;53.218;6.576;2022-08-19T12:48:10;15.63;;;11.75;;
58553;SDS011;48119;53.218;6.576;2022-08-19T12:50:38;12.70;;;10.88;;
58553;SDS011;48119;53.218;6.576;2022-08-19T12:53:05;14.68;;;10.45;;
58553;SDS011;48119;53.218;6.576;2022-08-19T12:55:30;12.75;;;9.05;;
58553;SDS011;48119;53.218;6.576;2022-08-19T12:57:56;12.48;;;8.93;;
58553;SDS011;48119;53.218;6.576;2022-08-19T13:00:22;10.23;;;8.63;;
58553;SDS011;48119;53.218;6.576;2022-08-19T13:02:50;13.75;;;8.85;;
58553;SDS011;48119;53.218;6.576;2022-08-19T13:05:21;12.43;;;9.93;;
58553;SDS011;48119;53.218;6.576;2022-08-19T13:07:50;10.77;;;9.45;;
58553;SDS011;48119;53.218;6.576;2022-08-19T13:10:20;12.18;;;9.52;;
58553;SDS011;48119;53.218;6.576;2022-08-19T13:12:47;13.75;;;9.18;;
58553;SDS011;48119;53.218;6.576;2022-08-19T13:15:15;12.13;;;9.73;;
58553;SDS011;48119;53.218;6.576;2022-08-19T13:17:45;16.60;;;11.95;;
58553;SDS011;48119;53.218;6.576;2022-08-19T13:20:13;18.58;;;11.02;;
58553;SDS011;48119;53.218;6.576;2022-08-19T13:22:38;12.23;;;10.95;;
58553;SDS011;48119;53.218;6.576;2022-08-19T13:25:05;14.45;;;10.43;;
58553;SDS011;48119;53.218;6.576;2022-08-19T13:27:32;17.60;;;10.25;;
58553;SDS011;48119;53.218;6.576;2022-08-19T13:29:58;17.05;;;10.27;;
58553;SDS011;48119;53.218;6.576;2022-08-19T13:32:43;18.38;;;11.82;;
58553;SDS011;48119;53.218;6.576;2022-08-19T13:35:27;19.02;;;12.82;;
58553;SDS011;48119;53.218;6.576;2022-08-19T13:37:53;23.30;;;10.43;;
58553;SDS011;48119;53.218;6.576;2022-08-19T13:40:20;15.85;;;11.85;;
58553;SDS011;48119;53.218;6.576;2022-08-19T13:42:50;14.75;;;10.65;;
58553;SDS011;48119;53.218;6.576;2022-08-19T13:45:21;13.30;;;8.75;;
58553;SDS011;48119;53.218;6.576;2022-08-19T13:47:50;9.10;;;6.65;;
58553;SDS011;48119;53.218;6.576;2022-08-19T13:50:18;9.63;;;7.15;;
58553;SDS011;48119;53.218;6.576;2022-08-19T13:52:46;9.93;;;6.25;;
58553;SDS011;48119;53.218;6.576;2022-08-19T13:55:13;9.40;;;7.43;;
58553;SDS011;48119;53.218;6.576;2022-08-19T13:57:40;10.40;;;6.88;;
58553;SDS011;48119;53.218;6.576;2022-08-19T14:00:15;11.90;;;8.45;;
58553;SDS011;48119;53.218;6.576;2022-08-19T14:02:43;10.80;;;7.53;;
58553;SDS011;48119;53.218;6.576;2022-08-19T14:05:11;13.07;;;7.03;;
58553;SDS011;48119;53.218;6.576;2022-08-19T14:07:38;11.68;;;6.93;;
58553;SDS011;48119;53.218;6.576;2022-08-19T14:10:04;8.57;;;6.53;;
58553;SDS011;48119;53.218;6.576;2022-08-19T14:12:32;7.10;;;5.47;;
58553;SDS011;48119;53.218;6.576;2022-08-19T14:14:58;10.60;;;6.20;;
58553;SDS011;48119;53.218;6.576;2022-08-19T14:17:25;6.68;;;5.38;;
58553;SDS011;48119;53.218;6.576;2022-08-19T14:19:57;9.10;;;6.28;;
58553;SDS011;48119;53.218;6.576;2022-08-19T14:22:32;7.78;;;6.68;;
58553;SDS011;48119;53.218;6.576;2022-08-19T14:24:58;12.25;;;7.78;;
58553;SDS011;48119;53.218;6.576;2022-08-19T14:27:24;11.30;;;7.55;;
58553;SDS011;48119;53.218;6.576;2022-08-19T14:29:51;12.50;;;8.32;;
58553;SDS011;48119;53.218;6.576;2022-08-19T14:32:17;12.90;;;8.27;;
58553;SDS011;48119;53.218;6.576;2022-08-19T14:34:43;11.60;;;8.73;;
58553;SDS011;48119;53.218;6.576;2022-08-19T14:37:12;11.52;;;8.57;;
58553;SDS011;48119;53.218;6.576;2022-08-19T14:39:42;14.80;;;10.10;;
58553;SDS011;48119;53.218;6.576;2022-08-19T14:42:08;12.70;;;8.95;;
58553;SDS011;48119;53.218;6.576;2022-08-19T14:44:35;15.10;;;9.65;;
58553;SDS011;48119;53.218;6.576;2022-08-19T14:47:01;14.88;;;9.63;;
58553;SDS011;48119;53.218;6.576;2022-08-19T14:49:27;13.38;;;9.80;;
58553;SDS011;48119;53.218;6.576;2022-08-19T14:51:52;13.90;;;9.70;;
58553;SDS011;48119;53.218;6.576;2022-08-19T14:54:18;15.13;;;9.32;;
58553;SDS011;48119;53.218;6.576;2022-08-19T14:56:44;15.23;;;10.23;;
58553;SDS011;48119;53.218;6.576;2022-08-19T14:59:10;12.00;;;9.50;;
58553;SDS011;48119;53.218;6.576;2022-08-19T15:01:36;14.80;;;9.88;;